Terminal Aerodrome Forecast
Issued by NWS Grand Rapids, MI

Home | Current Version | Previous Version | Text Only | Print | Product List | Glossary On
Versions: 1 2 3 4 5 6 7 8 9 10 11 12 13 14 15 16 17
000
FTUS43 KGRR 231740
TAFGRR
TAF
KGRR 231740Z 2318/2418 04008KT 2SM -RA BR OVC005
     FM240000 30015G23KT 3SM -SHRA BR OVC012
     FM240900 24010KT 2SM -SHRA BR OVC008
     FM241500 26016G26KT 4SM -SHRA BR OVC012=

USA.gov is the U.S. government's official web portal to all federal, state and local government web resources and services.